Saturday, February 24, 2018, 3:24 AM EST
Back to Local

KIAD, Dulles International Airport

Location: Chantilly, VA, United States Lat: 38.933
Local Time: 3:24 AM EST ( 8:24 GMT) Lon: -77.45
Time Zone: US/Eastern Elev: 311 ft

Show me the last for .
Show Decoded

2018-02-24 02:52 METAR KIAD 240752Z 17003KT 3/4SM R01R/4500V6000FT BR VV003 09/09 A3018 RMK AO2
                 SLP222 T00890089 =
2018-02-24 01:52 METAR KIAD 240652Z 00000KT 1/2SM R01R/2600V3000FT FG VV003 08/08 A3022 RMK AO2
                 SLP233 T00830083 =
2018-02-24 01:12 METAR KIAD 240612Z 18003KT 3/4SM R01R/4000V5000FT BR VV003 08/08 A3022 RMK AO2
                 T00830083 =
2018-02-24 00:52 METAR KIAD 240552Z 18004KT 1 1/2SM BR OVC002 08/08 A3022 RMK AO2 SLP235
                 T00830083 10083 20072 56017 =
2018-02-24 00:14 METAR KIAD 240514Z 17004KT 2SM BR OVC002 08/08 A3023 RMK AO2 T00830083 =
2018-02-23 23:52 METAR KIAD 240452Z 00000KT 4SM BR OVC003 08/08 A3024 RMK AO2 SLP242 T00830083
                 400830039 =
2018-02-23 23:16 METAR KIAD 240416Z 18004KT 3SM BR OVC003 08/08 A3024 RMK AO2 T00780078 =
2018-02-23 22:59 METAR KIAD 240359Z 18004KT 1 3/4SM BR OVC003 08/08 A3025 RMK AO2 T00780078 =
2018-02-23 22:52 METAR KIAD 240352Z 17005KT 3/4SM R01R/P6000FT BR OVC003 08/08 A3025 RMK AO2
                 SLP245 T00780078 =
2018-02-23 21:52 METAR KIAD 240252Z 18004KT 1/2SM R01R/P6000FT FG OVC002 07/07 A3027 RMK AO2
                 SLP252 T00720072 58014 =
2018-02-23 21:18 METAR KIAD 240218Z 16003KT 3/4SM R01R/P6000FT BR OVC002 07/07 A3028 RMK AO2
                 T00720072 =
2018-02-23 20:52 METAR KIAD 240152Z 17003KT 1SM R01R/P6000FT BR OVC003 07/07 A3029 RMK AO2 SLP258
                 T00720072 =
2018-02-23 20:31 METAR KIAD 240131Z 16005KT 1SM R01R/P6000FT BR OVC003 07/07 A3029 RMK AO2
                 T00720072 =
2018-02-23 20:05 METAR KIAD 240105Z 15003KT 2SM BR OVC005 07/07 A3030 RMK AO2 SFC VIS 2 1/2
                 T00720072 =
2018-02-23 19:52 METAR KIAD 240052Z 00000KT 5SM BR OVC006 07/07 A3031 RMK AO2 SLP265 T00720072 =
2018-02-23 18:52 METAR KIAD 232352Z 16004KT 10SM OVC008 07/07 A3031 RMK AO2 SLP266 60000
                 T00720067 10072 20061 58012 =
2018-02-23 17:52 METAR KIAD 232252Z 14003KT 10SM OVC008 07/07 A3033 RMK AO2 SLP272 T00720067 =
2018-02-23 16:52 METAR KIAD 232152Z 15004KT 10SM OVC009 07/06 A3034 RMK AO2 SLP276 T00720061 =
2018-02-23 15:52 METAR KIAD 232052Z 17006KT 10SM OVC008 07/06 A3035 RMK AO2 SLP278 60000
                 T00720061 56038 =
2018-02-23 14:52 METAR KIAD 231952Z 17007KT 5SM BR OVC009 07/06 A3038 RMK AO2 SLP290 T00670056 =
2018-02-23 13:52 METAR KIAD 231852Z 19005KT 5SM BR OVC008 07/06 A3042 RMK AO2 DZE16 SLP302 P0000
                 T00670056 =
2018-02-23 13:16 METAR KIAD 231816Z 15009KT 3SM BR OVC008 06/06 A3042 RMK AO2 SFC VIS 5 DZE16
                 PRESFR P0000 T00610056 =
2018-02-23 12:52 METAR KIAD 231752Z 14006KT 1 1/2SM -DZ BR BKN007 OVC012 06/06 A3046 RMK AO2 SFC
                 VIS 2 SLP316 P0000 60011 T00610056 10061 20044 58033 =
2018-02-23 11:52 METAR KIAD 231652Z 14005KT 1 1/2SM -DZ BR OVC007 06/05 A3051 RMK AO2 DZB47
                 SLP333 P0000 T00560050 =
2018-02-23 10:52 METAR KIAD 231552Z 14006KT 1 1/2SM BR BKN005 OVC011 05/04 A3054 RMK AO2 SFC VIS
                 2 SLP342 T00500044 =
2018-02-23 09:52 METAR KIAD 231452Z 09004KT 1 1/2SM BR BKN005 OVC013 05/05 A3056 RMK AO2 SLP349
                 60011 T00500050 58004 =
2018-02-23 09:31 METAR KIAD 231431Z 10005KT 1 1/2SM BR OVC005 05/04 A3056 RMK AO2 SFC VIS 2 1/2
                 T00500044 =
2018-02-23 08:52 METAR KIAD 231352Z 12003KT 2SM BR BKN007 OVC011 04/04 A3057 RMK AO2 SFC VIS 3
                 RAE27 SLP352 P0001 T00440044 =
2018-02-23 08:32 METAR KIAD 231332Z 11005KT 5SM BR SCT007 OVC018 04/04 A3057 RMK AO2 RAE27 P0001
                 T00440044 =
2018-02-23 08:16 METAR KIAD 231316Z 10005KT 2SM -RA FEW006 FEW011 OVC019 04/04 A3057 RMK AO2 SFC
                 VIS 10 P0001 T00440044 =
2018-02-23 07:59 METAR KIAD 231259Z 10005KT 2SM -RA FEW007 OVC014 04/04 A3057 RMK AO2 SFC VIS 10
                 P0001 T00440044 =
2018-02-23 07:52 METAR KIAD 231252Z 10003KT 1 1/2SM -RA BR BKN005 OVC014 04/04 A3058 RMK AO2 TWR
                 VIS 2 SLP356 P0010 T00440044 =
2018-02-23 07:38 METAR KIAD 231238Z 11004KT 1 1/2SM -RA BR BKN005 OVC014 04/04 A3057 RMK AO2
                 P0008 T00440044 =
2018-02-23 06:52 METAR KIAD 231152Z 09003KT 8SM -RA BKN005 BKN014 OVC021 04/04 A3057 RMK AO2
                 RAE15B48DZB18E48 SLP354 P0001 60002 70011 T00440044 10050 20039 55003 =
2018-02-23 06:19 METAR KIAD 231119Z 11005KT 4SM -DZ BR BKN005 OVC010 04/04 A3056 RMK AO2
                 RAE15DZB18 P0000 T00440044 =
2018-02-23 05:52 METAR KIAD 231052Z 11003KT 2 1/2SM -RA BR BKN006 OVC012 04/04 A3057 RMK AO2
                 DZE48RAB48 SLP352 P0001 T00390039 =
2018-02-23 04:52 METAR KIAD 230952Z 10004KT 4SM -DZ BKN005 OVC012 04/04 A3057 RMK AO2 DZB48
                 SLP352 P0000 T00390039 =
2018-02-23 03:52 METAR KIAD 230852Z 10006KT 10SM BKN008 OVC015 04/04 A3058 RMK AO2 RAB07E19
                 SLP357 P0000 60000 T00440039 56002 =

Support USWX by starting your Amazon purchase here.